createdAt,value
2018-04-17T00:03:51.846Z,20.3
2018-04-17T00:20:38.080Z,20.3
2018-04-17T00:37:25.905Z,20.3
2018-04-17T00:54:12.054Z,20.3
2018-04-17T01:10:59.456Z,20.0
2018-04-17T01:27:46.258Z,20.0
2018-04-17T01:44:33.099Z,20.0
2018-04-17T02:01:19.868Z,20.0
2018-04-17T02:18:06.868Z,20.0
2018-04-17T02:34:53.652Z,20.0
2018-04-17T02:51:40.663Z,20.0
2018-04-17T03:08:27.106Z,19.7
2018-04-17T03:25:14.187Z,19.7
2018-04-17T03:42:00.926Z,19.7
2018-04-17T03:58:47.318Z,19.7
2018-04-17T04:15:33.799Z,19.7
2018-04-17T04:32:20.314Z,19.7
2018-04-17T04:49:06.720Z,19.7
2018-04-17T05:05:53.529Z,19.7
2018-04-17T05:22:40.012Z,19.7
2018-04-17T05:39:26.224Z,19.7
2018-04-17T05:56:13.536Z,20.0
2018-04-17T06:13:00.137Z,20.0
2018-04-17T06:29:47.181Z,20.3
2018-04-17T06:46:34.761Z,20.3
2018-04-17T07:03:22.335Z,20.3
2018-04-17T07:20:10.615Z,20.6
2018-04-17T07:36:57.961Z,20.6
2018-04-17T07:53:45.371Z,20.6
2018-04-17T08:10:33.218Z,20.6
2018-04-17T08:27:22.086Z,21.0
2018-04-17T08:44:09.471Z,21.3
2018-04-17T09:00:58.328Z,21.3
2018-04-17T09:17:46.592Z,21.6
2018-04-17T09:34:35.448Z,21.6
2018-04-17T09:51:24.941Z,21.9
2018-04-17T10:08:13.936Z,22.2
2018-04-17T10:25:02.721Z,22.2
2018-04-17T10:41:52.407Z,22.2
2018-04-17T10:58:42.235Z,22.6
2018-04-17T11:15:32.229Z,22.6
2018-04-17T11:32:22.114Z,22.6
2018-04-17T11:49:12.388Z,22.6
2018-04-17T12:06:02.458Z,22.9
2018-04-17T12:22:52.759Z,22.9
2018-04-17T12:39:42.779Z,22.9
2018-04-17T12:56:33.092Z,22.9
2018-04-17T13:13:23.360Z,22.9
2018-04-17T13:30:13.738Z,22.9
2018-04-17T13:47:04.141Z,22.9
2018-04-17T14:03:54.543Z,22.9
2018-04-17T14:20:44.918Z,22.9
2018-04-17T14:37:35.017Z,22.9
2018-04-17T14:54:25.090Z,22.6
2018-04-17T15:11:15.279Z,22.9
2018-04-17T15:28:05.479Z,22.9
2018-04-17T15:44:55.381Z,22.6
2018-04-17T16:01:45.686Z,22.6
2018-04-17T16:18:35.400Z,22.6
2018-04-17T16:35:25.545Z,22.6
2018-04-17T16:52:15.468Z,22.6
2018-04-17T17:09:05.425Z,22.6
2018-04-17T17:25:55.336Z,22.2
2018-04-17T17:42:44.984Z,22.2
2018-04-17T17:59:34.877Z,22.2
2018-04-17T18:16:24.495Z,22.2
2018-04-17T18:33:14.200Z,21.9
2018-04-17T18:50:03.613Z,21.9
2018-04-17T19:06:52.876Z,21.9
2018-04-17T19:23:42.198Z,21.9
2018-04-17T19:40:31.667Z,21.9
2018-04-17T19:57:21.107Z,21.6
2018-04-17T20:14:10.312Z,21.6
2018-04-17T20:31:00.017Z,21.6
2018-04-17T20:47:48.645Z,21.6
2018-04-17T21:04:37.072Z,21.6
2018-04-17T21:21:24.553Z,21.6
2018-04-17T21:38:12.978Z,21.3
2018-04-17T21:55:00.779Z,21.3
2018-04-17T22:11:48.431Z,21.3
2018-04-17T22:28:36.210Z,21.3
2018-04-17T22:45:24.508Z,21.0
2018-04-17T23:02:12.044Z,21.0
2018-04-17T23:19:00.125Z,21.0
2018-04-17T23:35:47.825Z,21.0
2018-04-17T23:52:35.172Z,21.0
